Time;durP1;ratioP1;P1;durP2;ratioP2;P2;SDS_P1;SDS_P2;PMS_P1;PMS_P2;Temp;Humidity;BMP_temperature;BMP_pressure;BME280_temperature;BME280_humidity;BME280_pressure;Samples;Min_cycle;Max_cycle;Signal;HPM_P1;HPM_P2
2021/12/18 00:00:59;;;;;;;21.23;11.00;;;;;;;1.23;100.00;95068.56;5090123;28;20246;-75
2021/12/18 00:03:27;;;;;;;21.40;11.57;;;;;;;1.14;100.00;95063.41;5090520;28;20205;-75
2021/12/18 00:05:57;;;;;;;22.57;11.73;;;;;;;1.13;100.00;95066.91;5091048;28;20316;-76
2021/12/18 00:08:27;;;;;;;27.93;13.53;;;;;;;1.19;100.00;95074.94;5090777;28;20275;-76
2021/12/18 00:10:56;;;;;;;28.23;14.40;;;;;;;1.24;100.00;95076.09;5090732;28;20261;-76
2021/12/18 00:13:24;;;;;;;28.23;14.43;;;;;;;1.24;100.00;95065.84;5090706;28;20205;-76
2021/12/18 00:15:54;;;;;;;27.00;14.23;;;;;;;1.38;100.00;95069.63;5090622;28;20713;-75
2021/12/18 00:18:22;;;;;;;26.10;13.97;;;;;;;1.38;100.00;95059.38;5087986;28;20212;-76
2021/12/18 00:20:51;;;;;;;28.87;15.27;;;;;;;1.43;100.00;95070.78;5086458;28;20660;-76
2021/12/18 00:23:20;;;;;;;31.17;14.37;;;;;;;1.48;100.00;95068.56;5090415;28;20647;-77
2021/12/18 00:25:50;;;;;;;33.00;16.30;;;;;;;1.56;100.00;95070.34;5090424;28;20270;-75
2021/12/18 00:28:18;;;;;;;30.90;15.27;;;;;;;1.50;100.00;95058.19;5091049;28;20200;-77
2021/12/18 00:30:46;;;;;;;35.77;16.07;;;;;;;1.57;100.00;95088.13;5090588;28;20226;-76
2021/12/18 00:33:15;;;;;;;31.17;15.53;;;;;;;1.60;100.00;95084.47;5092472;28;20247;-77
2021/12/18 00:35:44;;;;;;;32.63;16.20;;;;;;;1.54;100.00;95080.75;5089647;28;20265;-77
2021/12/18 00:38:12;;;;;;;30.43;15.83;;;;;;;1.54;100.00;95085.88;5091925;28;20201;-82
2021/12/18 00:40:47;;;;;;;29.37;14.93;;;;;;;1.25;100.00;95075.13;5087918;28;20236;-79
2021/12/18 00:43:25;;;;;;;26.80;13.17;;;;;;;1.01;100.00;95069.88;5091011;28;20992;-76
2021/12/18 00:45:53;;;;;;;24.70;12.03;;;;;;;0.84;100.00;95070.69;5090413;28;20303;-75
2021/12/18 00:48:21;;;;;;;24.70;12.03;;;;;;;0.74;100.00;95065.69;5089657;28;20205;-77
2021/12/18 00:50:50;;;;;;;21.30;11.90;;;;;;;0.82;100.00;95068.28;5089813;28;20235;-76
2021/12/18 00:53:20;;;;;;;20.77;11.93;;;;;;;0.87;100.00;95067.84;5090210;28;20201;-75
2021/12/18 00:55:51;;;;;;;19.47;11.20;;;;;;;1.07;100.00;95067.50;5090502;28;20205;-75
2021/12/18 00:58:19;;;;;;;18.70;10.47;;;;;;;0.99;100.00;95053.84;5089259;28;20758;-75
2021/12/18 01:00:51;;;;;;;19.13;10.53;;;;;;;1.01;100.00;95070.66;5082884;28;20204;-75
2021/12/18 01:03:21;;;;;;;19.17;10.57;;;;;;;0.93;100.00;95070.59;5088442;28;20266;-74
2021/12/18 01:05:49;;;;;;;17.90;10.10;;;;;;;0.83;100.00;95069.91;5089376;28;20204;-74
2021/12/18 01:08:19;;;;;;;17.67;9.90;;;;;;;0.85;100.00;95068.00;5089192;28;20621;-75
2021/12/18 01:11:09;;;;;;;23.17;10.93;;;;;;;0.68;100.00;95071.38;5088575;28;20228;-76
2021/12/18 01:13:48;;;;;;;19.60;11.10;;;;;;;0.61;100.00;95074.69;5088912;28;20207;-74
2021/12/18 01:16:21;;;;;;;18.73;10.87;;;;;;;0.65;100.00;95071.66;5090040;28;20578;-76
2021/12/18 01:24:22;;;;;;;21.53;10.63;;;;;;;0.49;100.00;95061.31;5090127;28;20232;-75
2021/12/18 01:26:54;;;;;;;20.47;10.60;;;;;;;0.55;100.00;95063.25;5089274;28;20204;-75
2021/12/18 01:29:22;;;;;;;18.63;10.63;;;;;;;0.53;100.00;95065.16;5088843;28;20209;-74
2021/12/18 01:31:50;;;;;;;21.23;9.83;;;;;;;0.53;100.00;95068.53;5089240;28;20256;-74
2021/12/18 01:34:18;;;;;;;17.83;9.37;;;;;;;0.47;100.00;95064.00;5089834;28;20219;-75
2021/12/18 01:36:47;;;;;;;18.97;10.67;;;;;;;0.45;100.00;95058.25;5089520;28;20315;-75
2021/12/18 01:39:16;;;;;;;17.83;10.03;;;;;;;0.44;100.00;95063.47;5089356;28;20748;-75
2021/12/18 01:41:59;;;;;;;20.43;10.10;;;;;;;0.46;100.00;95064.16;5089099;28;20632;-75
2021/12/18 01:44:55;;;;;;;19.97;10.20;;;;;;;0.48;100.00;95060.50;5088633;28;20299;-75
2021/12/18 01:52:56;;;;;;;22.63;10.83;;;;;;;0.56;100.00;95052.91;5089640;28;20208;-75
2021/12/18 01:55:29;;;;;;;19.77;10.97;;;;;;;0.74;100.00;95054.63;5095386;28;20200;-75
2021/12/18 01:57:57;;;;;;;22.80;11.60;;;;;;;0.88;100.00;95065.13;5089095;28;20576;-75
2021/12/18 02:00:30;;;;;;;21.50;11.47;;;;;;;0.92;100.00;95061.34;5088889;28;20292;-75
2021/12/18 02:02:59;;;;;;;25.97;13.23;;;;;;;0.97;100.00;95071.13;5089106;28;20223;-74
2021/12/18 02:05:28;;;;;;;24.17;12.90;;;;;;;1.03;100.00;95063.66;5089386;28;20240;-74
2021/12/18 02:07:57;;;;;;;28.60;13.47;;;;;;;1.03;100.00;95053.41;5089163;28;20963;-75
2021/12/18 02:10:29;;;;;;;21.70;12.63;;;;;;;1.06;100.00;95062.56;5088757;28;20256;-75
2021/12/18 02:13:04;;;;;;;25.60;13.23;;;;;;;1.04;100.00;95054.19;5089155;28;20220;-74
2021/12/18 02:21:14;;;;;;;25.07;13.23;;;;;;;1.07;100.00;95054.72;5089266;28;20276;-74
2021/12/18 02:23:44;;;;;;;24.87;12.07;;;;;;;1.08;100.00;95060.63;5088438;28;20702;-74
2021/12/18 02:26:14;;;;;;;25.97;12.97;;;;;;;1.03;100.00;95061.09;5089331;28;20209;-76
2021/12/18 02:28:46;;;;;;;26.83;14.20;;;;;;;0.97;100.00;95060.88;5088728;28;20548;-74
2021/12/18 02:31:15;;;;;;;28.07;15.37;;;;;;;1.03;100.00;95063.66;5089805;28;20706;-74
2021/12/18 02:33:45;;;;;;;28.17;14.73;;;;;;;1.13;100.00;95059.22;5089269;28;20229;-74
2021/12/18 02:36:23;;;;;;;28.63;15.57;;;;;;;1.14;100.00;95057.47;5087448;28;20211;-74
2021/12/18 02:39:19;;;;;;;32.13;15.03;;;;;;;1.19;100.00;95057.00;5084843;28;20314;-74
2021/12/18 02:42:07;;;;;;;26.17;13.83;;;;;;;1.12;100.00;95064.50;5088904;28;20216;-75
2021/12/18 02:44:36;;;;;;;24.67;13.20;;;;;;;1.11;100.00;95062.91;5088592;28;20216;-75
2021/12/18 02:47:05;;;;;;;24.97;13.83;;;;;;;1.11;100.00;95065.47;5089528;28;20954;-74
2021/12/18 02:49:32;;;;;;;23.97;13.03;;;;;;;1.12;100.00;95077.31;5088714;28;20204;-75
2021/12/18 02:52:04;;;;;;;26.37;12.73;;;;;;;0.93;100.00;95074.91;5088795;28;20277;-74
2021/12/18 02:54:32;;;;;;;23.60;11.60;;;;;;;0.77;100.00;95079.91;5088609;28;20200;-74
2021/12/18 02:56:59;;;;;;;23.20;12.43;;;;;;;0.79;100.00;95073.69;5089821;28;20211;-74
2021/12/18 02:59:29;;;;;;;21.77;11.80;;;;;;;0.71;100.00;95077.94;5088865;28;20214;-75
2021/12/18 03:02:02;;;;;;;24.53;12.00;;;;;;;0.59;100.00;95074.81;5088729;28;20217;-76
2021/12/18 03:04:34;;;;;;;26.87;13.43;;;;;;;0.78;100.00;95078.97;5088561;28;20193;-75
2021/12/18 03:07:07;;;;;;;25.07;13.33;;;;;;;0.88;100.00;95070.25;5088850;28;20203;-75
2021/12/18 03:18:56;;;;;;;25.73;14.13;;;;;;;0.94;100.00;95062.00;5088065;28;20699;-75
2021/12/18 03:24:09;;;;;;;19.93;11.60;;;;;;;0.75;100.00;95081.81;5088184;28;20236;-75
2021/12/18 03:26:38;;;;;;;21.67;12.40;;;;;;;0.81;100.00;95082.03;5088404;28;20601;-75
2021/12/18 03:29:06;;;;;;;22.10;12.03;;;;;;;0.65;100.00;95078.53;5091710;28;20208;-75
2021/12/18 03:31:36;;;;;;;21.83;12.90;;;;;;;0.67;100.00;95077.44;5092191;28;20228;-75
2021/12/18 03:34:04;;;;;;;21.47;12.90;;;;;;;0.57;100.00;95064.75;5092419;28;20745;-75
2021/12/18 03:36:32;;;;;;;27.07;14.93;;;;;;;0.56;100.00;95083.59;5092213;28;20287;-75
2021/12/18 03:39:01;;;;;;;26.50;13.30;;;;;;;0.44;100.00;95083.94;5091527;28;20963;-75
2021/12/18 03:41:30;;;;;;;29.00;14.30;;;;;;;0.27;100.00;95072.75;5091433;28;20208;-74
2021/12/18 03:43:58;;;;;;;26.50;14.37;;;;;;;0.48;100.00;95088.63;5092068;28;20284;-75
2021/12/18 03:46:26;;;;;;;29.77;13.93;;;;;;;0.54;100.00;95088.03;5091231;28;20202;-75
2021/12/18 03:48:55;;;;;;;29.53;14.47;;;;;;;0.65;100.00;95092.13;5090705;28;20207;-75
2021/12/18 03:51:23;;;;;;;25.20;13.70;;;;;;;0.72;100.00;95088.03;5091199;28;20229;-75
2021/12/18 03:53:51;;;;;;;30.43;14.80;;;;;;;0.83;100.00;95089.56;5091451;28;20614;-75
2021/12/18 03:56:21;;;;;;;34.00;14.73;;;;;;;0.83;100.00;95089.56;5091610;28;20389;-75
2021/12/18 03:58:50;;;;;;;27.23;13.73;;;;;;;0.83;100.00;95084.44;5091183;28;20303;-76
2021/12/18 04:01:18;;;;;;;28.67;15.53;;;;;;;0.90;100.00;95091.38;5090858;28;20208;-75
2021/12/18 04:03:47;;;;;;;36.97;19.33;;;;;;;0.94;100.00;95090.13;5091155;28;20281;-76
2021/12/18 04:06:15;;;;;;;44.20;22.63;;;;;;;0.99;100.00;95093.03;5091854;28;20205;-76
2021/12/18 04:08:44;;;;;;;42.63;22.13;;;;;;;1.03;100.00;95091.81;5091121;28;20301;-76
2021/12/18 04:11:13;;;;;;;41.97;21.80;;;;;;;1.03;100.00;95086.69;5091567;28;20595;-76
2021/12/18 04:13:45;;;;;;;53.73;30.27;;;;;;;1.09;100.00;95088.66;5090830;28;20207;-76
2021/12/18 04:16:15;;;;;;;36.60;19.97;;;;;;;1.15;100.00;95094.91;5090775;28;20281;-76
2021/12/18 04:18:43;;;;;;;29.03;16.43;;;;;;;1.08;100.00;95093.91;5085230;28;20211;-76
2021/12/18 04:21:13;;;;;;;29.70;15.47;;;;;;;1.10;100.00;95100.47;5084231;28;20208;-76
2021/12/18 04:23:41;;;;;;;23.33;13.43;;;;;;;1.13;100.00;95097.63;5084327;28;20228;-75
2021/12/18 04:26:09;;;;;;;29.57;14.60;;;;;;;1.15;100.00;95100.81;5084510;28;20270;-76
2021/12/18 04:28:38;;;;;;;30.80;16.33;;;;;;;1.17;100.00;95107.56;5090641;28;20205;-76
2021/12/18 04:31:07;;;;;;;29.03;16.07;;;;;;;1.21;100.00;95106.31;5090420;28;20229;-76
2021/12/18 04:33:36;;;;;;;33.10;16.37;;;;;;;1.20;100.00;95107.25;5090638;28;20205;-76
2021/12/18 04:36:05;;;;;;;29.30;15.90;;;;;;;1.16;100.00;95104.19;5090635;28;20248;-77
2021/12/18 04:38:34;;;;;;;32.60;17.67;;;;;;;1.08;100.00;95101.56;5090052;28;20200;-77
2021/12/18 04:41:04;;;;;;;29.97;15.10;;;;;;;1.05;100.00;95105.25;5091107;28;20208;-76
2021/12/18 04:43:32;;;;;;;29.10;15.90;;;;;;;1.00;100.00;95119.44;5090448;28;20207;-76
2021/12/18 04:46:01;;;;;;;23.77;14.03;;;;;;;1.00;100.00;95117.69;5090269;28;20206;-78
2021/12/18 04:48:31;;;;;;;23.17;12.20;;;;;;;0.96;100.00;95118.91;5090301;28;20205;-76
2021/12/18 04:50:59;;;;;;;23.33;13.03;;;;;;;1.03;100.00;95125.06;5090395;28;20228;-78
2021/12/18 04:53:26;;;;;;;19.83;11.50;;;;;;;0.97;100.00;95117.97;5091206;28;20231;-77
2021/12/18 04:55:55;;;;;;;22.23;12.10;;;;;;;1.07;100.00;95136.59;5090809;28;20255;-77
2021/12/18 04:58:23;;;;;;;19.73;11.97;;;;;;;1.07;100.00;95138.34;5090267;28;20204;-77
2021/12/18 05:00:53;;;;;;;26.03;12.57;;;;;;;1.04;100.00;95141.19;5090144;28;20211;-76
2021/12/18 05:03:22;;;;;;;35.20;16.80;;;;;;;0.89;100.00;95125.59;5090730;28;20208;-76
2021/12/18 05:05:54;;;;;;;34.40;17.77;;;;;;;0.97;100.00;95148.69;5083947;28;20258;-76
2021/12/18 05:08:22;;;;;;;36.20;17.73;;;;;;;0.96;100.00;95154.72;5090034;28;20200;-77
2021/12/18 05:10:50;;;;;;;35.53;17.80;;;;;;;0.98;100.00;95150.25;5083238;28;20196;-77
2021/12/18 05:13:20;;;;;;;28.43;13.83;;;;;;;1.00;100.00;95157.81;5088938;28;21107;-76
2021/12/18 05:15:48;;;;;;;28.07;13.23;;;;;;;0.88;100.00;95164.09;5090369;28;20192;-77
2021/12/18 05:18:16;;;;;;;25.93;13.57;;;;;;;0.81;100.00;95163.88;5090061;28;20208;-76
2021/12/18 05:20:49;;;;;;;29.33;13.57;;;;;;;0.77;100.00;95164.31;5091878;28;20618;-78
2021/12/18 05:23:20;;;;;;;26.80;15.00;;;;;;;0.83;100.00;95169.66;5088730;28;20197;-78
2021/12/18 05:25:48;;;;;;;33.30;15.53;;;;;;;0.84;100.00;95175.56;5088209;28;20200;-77
2021/12/18 05:28:16;;;;;;;33.87;17.40;;;;;;;0.86;100.00;95178.78;5086370;28;20897;-77
2021/12/18 05:30:45;;;;;;;27.67;13.87;;;;;;;0.65;100.00;95180.81;5087951;28;20232;-76
2021/12/18 05:33:13;;;;;;;30.00;14.63;;;;;;;0.65;100.00;95175.69;5090154;28;20727;-77
2021/12/18 05:35:41;;;;;;;28.33;15.43;;;;;;;0.66;100.00;95188.34;5090123;28;20216;-77
2021/12/18 05:38:09;;;;;;;30.60;15.87;;;;;;;0.71;100.00;95187.91;5089556;28;20244;-76
2021/12/18 05:40:40;;;;;;;36.87;16.23;;;;;;;0.48;100.00;95187.50;5089606;28;20200;-76
2021/12/18 05:43:09;;;;;;;29.67;15.33;;;;;;;0.35;100.00;95182.72;5089393;28;20197;-76
2021/12/18 05:45:37;;;;;;;29.10;14.67;;;;;;;0.36;100.00;95186.91;5090362;28;20205;-75
2021/12/18 05:48:07;;;;;;;27.37;13.20;;;;;;;0.42;100.00;95193.19;5088817;28;20239;-76
2021/12/18 05:50:34;;;;;;;26.03;13.83;;;;;;;0.42;100.00;95188.88;5089218;28;20223;-74
2021/12/18 05:53:03;;;;;;;27.67;14.83;;;;;;;0.36;100.00;95181.78;5088759;28;20232;-75
2021/12/18 05:55:32;;;;;;;29.07;15.03;;;;;;;0.31;100.00;95189.09;5093731;28;20201;-75
2021/12/18 05:58:03;;;;;;;29.03;15.70;;;;;;;0.28;100.00;95193.66;5088888;28;20240;-75
2021/12/18 06:00:32;;;;;;;28.00;15.17;;;;;;;0.29;100.00;95196.06;5088932;28;20196;-75
2021/12/18 06:03:00;;;;;;;24.50;13.07;;;;;;;0.33;100.00;95199.16;5088940;28;20669;-74
2021/12/18 06:05:29;;;;;;;25.77;13.03;;;;;;;0.33;100.00;95196.59;5087973;28;20240;-75
2021/12/18 06:07:58;;;;;;;24.83;12.93;;;;;;;0.25;100.00;95206.72;5088552;28;20704;-74
2021/12/18 06:10:29;;;;;;;20.70;12.03;;;;;;;0.25;100.00;95207.53;5088996;28;20285;-76
2021/12/18 06:12:59;;;;;;;26.23;13.57;;;;;;;0.30;100.00;95197.69;5089376;28;20220;-76
2021/12/18 06:15:30;;;;;;;28.33;15.30;;;;;;;0.21;100.00;95206.19;5088068;28;20212;-75
2021/12/18 06:17:58;;;;;;;32.03;14.60;;;;;;;0.03;100.00;95195.09;5088608;28;20212;-75
2021/12/18 06:20:28;;;;;;;29.60;14.20;;;;;;;0.12;100.00;95213.91;5088800;28;20255;-75
2021/12/18 06:22:56;;;;;;;26.60;14.70;;;;;;;0.19;100.00;95215.78;5088734;28;20204;-75
2021/12/18 06:25:25;;;;;;;35.10;14.97;;;;;;;0.23;100.00;95206.06;5088882;28;20232;-75
2021/12/18 06:27:54;;;;;;;29.23;15.23;;;;;;;0.30;100.00;95228.34;5088733;28;20200;-75
2021/12/18 06:30:23;;;;;;;31.63;16.13;;;;;;;0.38;100.00;95231.00;5088483;28;20216;-75
2021/12/18 06:32:52;;;;;;;30.97;16.13;;;;;;;0.34;100.00;95231.44;5087746;28;20691;-75
2021/12/18 06:35:21;;;;;;;34.90;17.67;;;;;;;0.28;100.00;95237.13;5088502;28;20192;-75
2021/12/18 06:37:50;;;;;;;38.20;18.43;;;;;;;0.37;100.00;95239.63;5088776;28;20692;-76
2021/12/18 06:40:18;;;;;;;38.63;19.43;;;;;;;0.55;100.00;95239.66;5085586;28;20228;-78
2021/12/18 06:42:47;;;;;;;37.73;18.40;;;;;;;0.63;100.00;95239.78;5088549;28;20234;-71
2021/12/18 06:45:16;;;;;;;37.87;19.40;;;;;;;0.63;100.00;95246.63;5085308;28;20297;-71
2021/12/18 06:47:43;;;;;;;39.03;19.80;;;;;;;0.63;100.00;95244.88;5089161;28;20200;-71
2021/12/18 06:50:14;;;;;;;28.77;15.10;;;;;;;0.57;100.00;95248.81;5088607;28;20212;-73
2021/12/18 06:52:43;;;;;;;39.17;18.47;;;;;;;0.54;100.00;95248.28;5088491;28;20236;-72
2021/12/18 06:55:11;;;;;;;37.97;17.57;;;;;;;0.64;100.00;95246.47;5087700;28;20197;-71
2021/12/18 06:57:39;;;;;;;36.30;19.67;;;;;;;0.62;100.00;95250.94;5094915;28;20288;-72
2021/12/18 07:00:11;;;;;;;40.87;19.67;;;;;;;0.72;100.00;95259.38;5088989;28;20690;-72
2021/12/18 07:02:39;;;;;;;34.13;18.43;;;;;;;0.58;100.00;95267.50;5092558;28;20258;-72
2021/12/18 07:05:08;;;;;;;32.43;16.37;;;;;;;0.63;100.00;95270.47;5092968;28;20342;-72
2021/12/18 07:07:39;;;;;;;32.83;16.23;;;;;;;0.60;100.00;95268.19;5092518;28;20348;-71
2021/12/18 07:10:11;;;;;;;29.00;15.43;;;;;;;0.75;100.00;95269.28;5093014;28;20236;-71
2021/12/18 07:12:39;;;;;;;33.33;15.90;;;;;;;0.82;100.00;95279.78;5093129;28;20326;-71
2021/12/18 07:15:09;;;;;;;36.07;16.50;;;;;;;0.95;100.00;95282.81;5094862;28;20298;-79
2021/12/18 07:17:37;;;;;;;38.40;19.33;;;;;;;1.06;100.00;95275.72;5097849;28;20286;-79
2021/12/18 07:20:07;;;;;;;38.77;20.10;;;;;;;1.12;100.00;95274.34;5090494;28;20266;-79
2021/12/18 07:22:39;;;;;;;38.50;20.40;;;;;;;1.14;100.00;95264.75;5097969;28;20277;-80
2021/12/18 07:25:08;;;;;;;41.97;23.20;;;;;;;1.29;100.00;95280.41;5089385;28;20232;-78
2021/12/18 07:27:38;;;;;;;38.23;19.90;;;;;;;1.36;100.00;95286.56;5088815;28;20232;-79
2021/12/18 07:30:08;;;;;;;31.67;15.33;;;;;;;1.41;100.00;95287.75;5087232;28;20201;-79
2021/12/18 07:32:36;;;;;;;25.73;13.13;;;;;;;1.35;100.00;95272.97;5087345;28;20225;-79
2021/12/18 07:35:04;;;;;;;25.93;13.20;;;;;;;1.55;100.00;95289.78;5090435;28;20210;-78
2021/12/18 07:37:32;;;;;;;22.37;12.93;;;;;;;1.64;100.00;95290.66;5095762;28;20563;-78
2021/12/18 07:40:05;;;;;;;23.17;12.70;;;;;;;1.67;100.00;95292.94;5080840;28;20202;-79
2021/12/18 07:42:36;;;;;;;29.83;13.60;;;;;;;1.65;100.00;95294.81;5097917;28;20259;-79
2021/12/18 07:45:05;;;;;;;25.77;13.50;;;;;;;1.73;100.00;95301.78;5095965;28;20211;-79
2021/12/18 07:47:32;;;;;;;30.00;14.30;;;;;;;1.74;100.00;95309.31;5096354;28;20235;-79
2021/12/18 07:50:02;;;;;;;28.17;16.00;;;;;;;1.67;100.00;95301.41;5088693;28;20229;-78
2021/12/18 07:52:30;;;;;;;46.57;22.73;;;;;;;1.73;100.00;95299.22;5094156;28;20401;-78
2021/12/18 07:54:58;;;;;;;54.63;28.20;;;;;;;1.79;100.00;95324.25;5083007;28;20881;-78
2021/12/18 07:57:27;;;;;;;63.03;31.07;;;;;;;1.77;100.00;95323.56;5093016;28;20283;-80
2021/12/18 07:59:56;;;;;;;56.57;28.93;;;;;;;1.73;100.00;95325.66;5092786;28;20239;-80
2021/12/18 08:02:24;;;;;;;51.50;27.17;;;;;;;1.77;100.00;95334.63;5093458;28;20203;-85
2021/12/18 08:04:53;;;;;;;46.53;24.20;;;;;;;1.66;100.00;95339.97;5093453;28;20190;-82
2021/12/18 08:07:21;;;;;;;44.60;22.20;;;;;;;1.64;100.00;95340.13;5093204;28;20213;-79
2021/12/18 08:09:49;;;;;;;27.40;15.23;;;;;;;1.32;100.00;95319.34;5093045;28;20231;-80
2021/12/18 08:12:19;;;;;;;40.37;17.07;;;;;;;1.54;100.00;95334.28;5092934;28;20217;-83
2021/12/18 08:14:49;;;;;;;37.37;19.47;;;;;;;1.59;100.00;95338.94;5085030;28;20248;-83
2021/12/18 08:17:17;;;;;;;40.03;19.97;;;;;;;1.75;100.00;95345.97;5093237;28;20254;-81
2021/12/18 08:19:46;;;;;;;38.00;21.77;;;;;;;1.73;100.00;95341.00;5079515;28;20287;-79
2021/12/18 08:22:14;;;;;;;36.63;21.03;;;;;;;1.75;100.00;95343.41;5092337;28;20205;-75
2021/12/18 08:24:42;;;;;;;34.90;19.50;;;;;;;1.81;100.00;95353.06;5091822;28;20236;-75
2021/12/18 08:27:10;;;;;;;29.90;15.77;;;;;;;1.78;100.00;95349.06;5091306;28;20205;-81
2021/12/18 08:29:40;;;;;;;28.60;14.73;;;;;;;1.80;100.00;95344.59;5090887;28;20194;-79
2021/12/18 08:32:11;;;;;;;32.67;17.03;;;;;;;1.95;100.00;95355.13;5093294;28;20235;-82
2021/12/18 08:34:39;;;;;;;33.87;17.13;;;;;;;2.00;100.00;95345.22;5092931;28;20194;-83
2021/12/18 08:37:08;;;;;;;28.50;16.30;;;;;;;2.21;100.00;95358.53;5092869;28;20197;-79
2021/12/18 08:39:37;;;;;;;33.53;15.17;;;;;;;2.36;100.00;95362.16;5091686;28;20264;-78
2021/12/18 08:42:07;;;;;;;36.20;16.83;;;;;;;2.28;100.00;95344.94;5092951;28;20244;-77
2021/12/18 08:44:35;;;;;;;35.97;19.13;;;;;;;2.37;100.00;95358.63;5092327;28;20201;-80
2021/12/18 08:47:03;;;;;;;37.97;20.60;;;;;;;2.47;100.00;95351.66;5092086;28;20284;-80
2021/12/18 08:49:33;;;;;;;29.33;14.77;;;;;;;2.65;100.00;95356.72;5091669;28;20226;-79
2021/12/18 08:52:01;;;;;;;26.77;15.60;;;;;;;2.70;100.00;95357.06;5091845;28;20220;-82
2021/12/18 08:54:31;;;;;;;27.27;15.10;;;;;;;2.73;100.00;95364.47;5080794;28;20201;-79
2021/12/18 08:56:59;;;;;;;27.27;14.87;;;;;;;2.75;100.00;95357.41;5083308;28;20286;-83
2021/12/18 08:59:27;;;;;;;30.60;16.73;;;;;;;2.72;100.00;95363.66;5091375;28;20239;-78
2021/12/18 09:01:54;;;;;;;21.27;12.10;;;;;;;2.76;100.00;95362.41;5078164;28;20204;-79
2021/12/18 09:04:22;;;;;;;16.07;10.33;;;;;;;2.76;100.00;95364.16;5091542;28;20204;-79
2021/12/18 09:06:51;;;;;;;14.03;8.63;;;;;;;2.65;100.00;95349.84;5081013;28;20204;-79
2021/12/18 09:09:19;;;;;;;23.43;11.33;;;;;;;2.44;100.00;95359.66;5090880;28;20664;-82
2021/12/18 09:11:48;;;;;;;21.50;11.03;;;;;;;2.57;100.00;95357.47;5091361;28;20202;-76
2021/12/18 09:14:16;;;;;;;13.93;7.87;;;;;;;2.62;100.00;95360.41;5090141;28;20313;-75
2021/12/18 09:16:44;;;;;;;22.03;11.10;;;;;;;2.77;100.00;95355.50;5092497;28;20680;-79
2021/12/18 09:19:13;;;;;;;22.00;11.73;;;;;;;2.60;100.00;95351.22;5092819;27;20212;-78
2021/12/18 09:21:41;;;;;;;24.63;12.47;;;;;;;2.68;100.00;95349.53;5093059;28;20203;-79
2021/12/18 09:24:12;;;;;;;26.17;13.67;;;;;;;2.64;100.00;95352.53;5090698;28;20227;-79
2021/12/18 09:26:41;;;;;;;30.50;17.37;;;;;;;2.84;100.00;95356.50;5092085;28;20813;-78
2021/12/18 09:29:09;;;;;;;24.07;14.10;;;;;;;3.03;100.00;95356.25;5084707;28;20253;-79
2021/12/18 09:31:37;;;;;;;25.30;14.57;;;;;;;3.01;100.00;95353.03;5091055;28;20290;-78
2021/12/18 09:34:06;;;;;;;23.33;14.30;;;;;;;2.79;100.00;95351.03;5091589;28;20227;-79
2021/12/18 09:36:34;;;;;;;22.50;13.03;;;;;;;2.72;100.00;95361.09;5091172;28;20630;-80
2021/12/18 09:39:02;;;;;;;22.73;12.70;;;;;;;2.86;100.00;95362.28;5090681;28;20269;-78
2021/12/18 09:41:33;;;;;;;26.37;15.73;;;;;;;2.64;100.00;95363.63;5090883;28;20238;-78
2021/12/18 09:44:01;;;;;;;31.67;17.63;;;;;;;2.62;100.00;95359.59;5084310;28;20245;-79
2021/12/18 09:46:32;;;;;;;26.63;14.37;;;;;;;2.51;100.00;95359.84;5086209;28;20249;-78
2021/12/18 09:49:03;;;;;;;27.47;13.77;;;;;;;2.46;100.00;95354.34;5090727;28;20208;-79
2021/12/18 09:51:32;;;;;;;29.30;15.30;;;;;;;2.31;100.00;95341.28;5083251;28;20284;-78
2021/12/18 09:54:10;;;;;;;22.70;13.80;;;;;;;2.40;100.00;95344.69;5085599;28;20231;-79
2021/12/18 09:56:40;;;;;;;27.07;14.37;;;;;;;2.54;100.00;95346.72;5090717;28;20207;-79
2021/12/18 09:59:08;;;;;;;27.83;14.87;;;;;;;2.65;100.00;95338.78;5090795;28;20200;-78
2021/12/18 10:01:36;;;;;;;25.87;13.67;;;;;;;2.48;100.00;95339.63;5081490;28;20204;-79
2021/12/18 10:04:06;;;;;;;18.33;10.20;;;;;;;2.43;100.00;95331.56;5080761;28;20203;-79
2021/12/18 10:06:39;;;;;;;19.70;10.00;;;;;;;2.57;100.00;95344.66;5077522;28;20222;-79
2021/12/18 10:09:11;;;;;;;20.47;11.63;;;;;;;4.03;100.00;95337.38;5091073;28;20298;-79
2021/12/18 10:11:50;;;;;;;14.50;8.07;;;;;;;5.88;95.53;95347.06;5083528;28;20199;-78
2021/12/18 10:14:19;;;;;;;19.83;10.90;;;;;;;7.31;87.40;95357.94;5090487;28;20228;-78
2021/12/18 10:16:49;;;;;;;24.87;13.83;;;;;;;7.95;82.07;95351.09;5090191;28;20204;-78
2021/12/18 10:19:39;;;;;;;24.20;14.53;;;;;;;8.24;79.35;95341.59;5083549;28;20315;-79
2021/12/18 10:22:10;;;;;;;27.17;15.70;;;;;;;8.23;80.55;95343.41;5085707;28;20250;-78
2021/12/18 10:24:46;;;;;;;32.67;17.10;;;;;;;8.93;78.07;95343.34;5090340;28;20314;-78
2021/12/18 10:27:21;;;;;;;34.60;19.73;;;;;;;9.61;75.38;95341.66;5090283;28;20215;-79
2021/12/18 10:29:52;;;;;;;23.80;13.20;;;;;;;9.27;73.33;95346.91;5090472;28;20190;-78
2021/12/18 10:32:22;;;;;;;17.90;11.23;;;;;;;9.10;73.10;95343.84;5090853;28;20734;-78
2021/12/18 10:34:53;;;;;;;26.07;14.80;;;;;;;8.83;75.84;95347.28;5090578;28;20886;-81
2021/12/18 10:37:25;;;;;;;25.83;14.17;;;;;;;8.84;76.98;95352.25;5089923;28;20569;-80
2021/12/18 10:40:06;;;;;;;17.43;9.73;;;;;;;8.61;76.70;95332.75;5083920;28;20204;-79
2021/12/18 10:42:42;;;;;;;11.50;7.07;;;;;;;7.97;76.67;95331.00;5072132;28;20266;-81
2021/12/18 10:45:22;;;;;;;12.03;6.33;;;;;;;7.56;77.58;95322.22;5087938;28;20295;-81
2021/12/18 10:47:57;;;;;;;7.77;5.63;;;;;;;7.11;78.99;95319.91;5082060;28;20199;-79
2021/12/18 10:50:33;;;;;;;8.57;6.03;;;;;;;6.63;80.81;95313.50;5090615;28;20289;-79
2021/12/18 10:53:04;;;;;;;7.63;5.57;;;;;;;6.32;82.39;95307.69;5090128;28;20219;-78
2021/12/18 10:55:36;;;;;;;7.97;5.30;;;;;;;6.02;82.05;95312.78;5077399;28;20195;-78
2021/12/18 10:58:08;;;;;;;8.00;5.50;;;;;;;5.89;82.50;95306.59;5090423;28;20237;-79
2021/12/18 11:00:45;;;;;;;13.50;7.57;;;;;;;5.62;84.25;95308.69;5085499;28;20204;-79
2021/12/18 11:03:18;;;;;;;16.83;9.03;;;;;;;5.34;86.19;95309.34;5090160;28;20216;-79
2021/12/18 11:06:03;;;;;;;16.50;9.43;;;;;;;5.26;88.68;95299.06;5089693;28;20211;-78
2021/12/18 11:08:32;;;;;;;12.63;7.23;;;;;;;5.05;87.81;95297.09;5089997;28;20208;-78
2021/12/18 11:13:50;;;;;;;5.10;3.50;;;;;;;4.79;82.70;95294.75;5067463;28;20277;-80
2021/12/18 11:16:20;;;;;;;6.20;3.60;;;;;;;4.57;82.63;95296.28;5090808;28;20196;-81
2021/12/18 11:18:49;;;;;;;5.40;3.73;;;;;;;4.47;84.43;95302.59;5089956;28;20205;-81
2021/12/18 11:21:18;;;;;;;4.17;3.43;;;;;;;4.45;84.92;95302.75;5090229;28;20193;-80
2021/12/18 11:23:52;;;;;;;5.33;3.70;;;;;;;4.50;84.47;95302.28;5083065;28;20594;-81
2021/12/18 11:26:24;;;;;;;9.50;3.90;;;;;;;4.47;84.46;95292.31;5090649;28;20217;-81
2021/12/18 11:28:56;;;;;;;5.33;3.27;;;;;;;4.47;85.53;95300.03;5090518;28;20208;-81
2021/12/18 11:31:28;;;;;;;4.80;3.30;;;;;;;4.54;85.75;95299.19;5090571;28;20189;-81
2021/12/18 11:33:57;;;;;;;6.07;3.60;;;;;;;4.51;85.29;95299.50;5090368;28;20299;-83
2021/12/18 11:36:25;;;;;;;6.10;3.30;;;;;;;4.57;84.02;95300.63;5090571;28;20200;-80
2021/12/18 11:38:53;;;;;;;6.27;3.70;;;;;;;4.58;84.54;95307.38;5090791;28;20659;-81
2021/12/18 11:41:24;;;;;;;5.57;3.60;;;;;;;4.54;84.33;95309.47;5091065;28;20193;-81
2021/12/18 11:43:55;;;;;;;4.83;3.60;;;;;;;4.69;83.89;95308.81;5090578;28;20266;-81
2021/12/18 11:46:31;;;;;;;5.67;3.70;;;;;;;4.79;84.95;95306.84;5081796;28;20261;-84
2021/12/18 11:49:01;;;;;;;6.00;4.00;;;;;;;4.88;83.88;95304.06;5085633;28;20200;-81
2021/12/18 11:51:32;;;;;;;7.40;4.57;;;;;;;4.91;82.15;95302.91;5080055;28;20209;-83
2021/12/18 11:54:03;;;;;;;7.53;4.20;;;;;;;4.87;83.58;95306.81;5093751;28;20216;-81
2021/12/18 11:56:48;;;;;;;9.27;4.87;;;;;;;4.88;82.96;95306.63;5093793;28;20561;-81
2021/12/18 11:59:39;;;;;;;6.63;4.07;;;;;;;4.84;83.86;95309.72;5093765;28;20224;-83
2021/12/18 12:02:07;;;;;;;8.63;4.80;;;;;;;4.88;83.74;95314.34;5088229;28;20196;-82
2021/12/18 12:05:04;;;;;;;7.97;4.33;;;;;;;4.90;84.25;95316.78;5092856;28;20200;-80